Latest Weather Observations for Toowoomba

IDQ60801

Issued at 2:32 am EST Monday 20 February 2017 (issued every 30 minutes, with the page automatically refreshed every 10 minutes)

About weather observations | Map of weather stations | Latest weather observations for QLD | Other Formats
Station Details ID: 041529 Name: TOOWOOMBA AIRPORT Lat: -27.54 Lon: 151.91 Height: 640.9 m
Data from the previous 72 hours. | See also: Recent months at Toowoomba
Date/Time
EST
Temp
°C
App
Temp
°C
Dew
Point
°C
Rel
Hum
%
Delta-T
°C
Wind Press
QNH
hPa
Press
MSL
hPa
Rain since
9am
mm
Dir  Spd
km/h
Gust
km/h
Spd
kts
Gust
kts
20/02:30am 18.0 18.3 17.8 99 0.1 SW 13 17 7 9 1012.1 1008.4 14.8
20/02:00am 18.0 17.1 17.8 99 0.1 WSW 19 24 10 13 1012.3 1008.6 14.8
20/01:57am 18.0 17.1 17.8 99 0.1 WSW 19 24 10 13 1012.6 1008.9 14.8
20/01:30am 18.4 17.6 17.1 92 0.8 NW 17 28 9 15 1012.6 1008.9 14.8
20/01:00am 18.9 17.9 16.7 87 1.4 NNE 17 20 9 11 1012.2 1008.5 14.8
20/12:30am 18.4 18.7 17.8 96 0.4 NE 13 17 7 9 1012.4 1008.7 14.8
20/12:00am 18.2 19.3 17.9 98 0.2 NNW 9 13 5 7 1013.3 1009.7 14.8
 
Date/Time
EST
Temp
°C
App
Temp
°C
Dew
Point
°C
Rel
Hum
%
Delta-T
°C
Wind Press
QNH
hPa
Press
MSL
hPa
Rain since
9am
mm
Dir  Spd
km/h
Gust
km/h
Spd
kts
Gust
kts
19/11:30pm 18.7 20.4 18.0 96 0.4 N 6 13 3 7 1013.3 1009.7 14.6
19/11:00pm 18.1 20.9 17.9 99 0.1 CALM 0 4 0 2 1013.9 1010.2 14.6
19/10:33pm 18.0 19.0 17.8 99 0.1 WSW 9 13 5 7 1014.5 1010.9 14.4
19/10:30pm 18.1 19.2 17.9 99 0.1 WSW 9 13 5 7 1014.5 1010.9 14.4
19/10:00pm 18.2 17.7 17.9 98 0.2 SW 17 19 9 10 1014.4 1010.8 11.6
19/09:30pm 18.2 17.6 17.6 96 0.4 WSW 17 24 9 13 1014.8 1011.2 8.6
19/09:23pm 18.3 16.3 17.3 94 0.6 WSW 24 39 13 21 1014.6 1011.0 8.2
19/09:20pm 18.5 16.1 17.3 93 0.7 SW 26 39 14 21 1014.6 1011.0 7.6
19/09:00pm 19.4 17.7 18.2 93 0.8 SW 24 35 13 19 1014.0 1010.3 7.0
19/08:50pm 20.1 19.7 18.8 92 0.8 WSW 19 28 10 15 1013.8 1010.1 7.0
19/08:30pm 20.5 22.1 19.2 92 0.8 W 9 13 5 7 1013.4 1009.8 7.0
19/08:00pm 20.4 22.0 19.2 93 0.8 WNW 9 11 5 6 1013.1 1009.5 7.0
19/07:30pm 20.4 22.0 19.1 92 0.8 NNW 9 11 5 6 1012.4 1008.7 7.0
19/07:00pm 20.5 22.8 19.5 94 0.7 W 6 7 3 4 1012.1 1008.4 7.0
19/06:30pm 20.5 22.6 19.0 91 1.0 NNE 6 9 3 5 1011.3 1007.7 7.0
19/06:00pm 20.5 22.6 19.3 93 0.8 NNW 7 9 4 5 1011.1 1007.4 7.0
19/05:30pm 20.6 23.0 19.6 94 0.7 ENE 6 11 3 6 1009.8 1006.1 7.0
19/05:00pm 20.3 20.3 19.0 92 0.8 NNW 17 22 9 12 1011.1 1007.4 6.6
19/04:30pm 20.8 21.7 20.1 96 0.5 NW 15 19 8 10 1011.0 1007.3 5.6
19/04:02pm 20.3 21.1 19.1 93 0.8 NNW 13 17 7 9 1010.8 1007.1 5.2
19/04:00pm 20.2 20.8 18.7 91 1.0 NNW 13 17 7 9 1010.8 1007.1 5.2
19/03:31pm 22.7 21.5 19.3 81 2.2 WNW 24 30 13 16 1011.0 1007.3 1.8
19/03:30pm 22.9 21.7 19.3 80 2.4 WNW 24 30 13 16 1011.0 1007.3 1.4
19/03:00pm 25.6 24.6 18.0 63 4.9 WNW 20 26 11 14 1010.8 1007.1 0.4
19/02:30pm 25.7 24.4 16.8 58 5.7 NW 19 26 10 14 1011.1 1007.4 0.4
19/02:00pm 26.0 24.9 17.4 59 5.5 NW 19 28 10 15 1011.4 1007.8 0.4
19/01:30pm 25.3 23.6 17.2 61 5.2 NW 22 28 12 15 1011.5 1007.9 0.4
19/01:00pm 25.5 25.0 17.7 62 5.0 NW 17 22 9 12 1012.0 1008.3 0.4
19/12:30pm 25.2 25.2 17.1 60 5.2 NW 13 17 7 9 1012.0 1008.3 0.4
19/12:00pm 24.9 23.8 16.3 59 5.4 NNW 17 22 9 12 1012.2 1008.5 0.4
19/11:30am 23.8 24.8 17.8 69 3.8 NW 9 13 5 7 1012.6 1008.9 0.4
19/11:00am 22.5 23.8 17.6 74 3.1 WNW 7 11 4 6 1012.6 1008.9 0.4
19/10:30am 21.3 22.4 17.1 77 2.6 N 7 11 4 6 1012.6 1008.9 0.4
19/10:00am 21.1 21.9 17.3 79 2.4 NNW 9 11 5 6 1012.5 1008.8 0.4
19/09:30am 20.9 22.1 17.3 80 2.3 W 7 11 4 6 1012.9 1009.3 0.2
19/09:00am 21.3 22.5 16.9 76 2.8 NNE 6 7 3 4 1012.5 1008.8 5.8
19/08:30am 20.7 22.3 18.3 86 1.5 E 7 9 4 5 1012.6 1008.9 5.6
19/08:00am 20.3 21.7 18.6 90 1.1 NNE 9 13 5 7 1012.5 1008.8 5.6
19/07:30am 20.6 23.1 18.2 86 1.5 NNE 2 7 1 4 1012.5 1008.8 5.6
19/07:00am 20.2 22.5 17.6 85 1.6 E 2 9 1 5 1012.0 1008.3 5.6
19/06:30am 20.4 22.3 17.6 84 1.8 NE 4 7 2 4 1012.0 1008.3 5.4
19/06:00am 20.1 21.1 16.9 82 2.0 NW 7 9 4 5 1012.0 1008.3 5.4
19/05:30am 20.1 19.7 16.3 79 2.3 N 13 17 7 9 1012.1 1008.4 5.4
19/05:00am 19.5 18.2 16.9 85 1.6 N 19 24 10 13 1012.6 1008.9 5.4
19/04:30am 18.8 19.4 17.8 94 0.6 ENE 11 19 6 10 1012.0 1008.3 5.4
19/04:00am 18.6 20.0 17.8 95 0.5 ENE 7 11 4 6 1012.5 1008.8 4.6
19/03:30am 18.6 19.0 18.1 97 0.3 E 13 17 7 9 1012.6 1008.9 4.0
19/03:00am 18.7 19.0 18.0 96 0.4 NE 13 17 7 9 1013.7 1010.0 3.8
19/02:30am 19.0 20.2 18.3 96 0.4 NE 9 11 5 6 1014.0 1010.3 3.0
19/02:00am 19.0 20.4 17.8 93 0.8 ESE 7 11 4 6 1013.7 1010.0 2.4
19/01:30am 18.8 19.7 18.3 97 0.3 SW 11 19 6 10 1013.7 1010.0 2.2
19/01:00am 18.8 18.2 18.5 98 0.2 SW 19 24 10 13 1014.3 1010.7 1.6
19/12:30am 19.0 18.3 18.3 96 0.4 SW 19 26 10 14 1014.8 1011.2 1.2
19/12:00am 19.0 18.2 18.5 97 0.3 SW 20 28 11 15 1014.9 1011.3 1.0
 
Date/Time
EST
Temp
°C
App
Temp
°C
Dew
Point
°C
Rel
Hum
%
Delta-T
°C
Wind Press
QNH
hPa
Press
MSL
hPa
Rain since
9am
mm
Dir  Spd
km/h
Gust
km/h
Spd
kts
Gust
kts
18/11:30pm 19.3 17.4 18.5 95 0.5 SW 26 32 14 17 1015.1 1011.5 0.8
18/11:00pm 21.0 19.9 18.6 86 1.5 SW 22 37 12 20 1014.8 1011.2 0.2
18/10:30pm 23.1 20.9 16.9 68 3.9 SSW 24 44 13 24 1013.8 1010.1 0.0
18/10:00pm 22.8 20.2 16.8 69 3.8 E 26 32 14 17 1012.0 1008.3 0.0
18/09:30pm 23.3 20.3 16.8 67 4.1 E 28 35 15 19 1011.5 1007.9 0.0
18/09:00pm 23.8 20.7 16.6 64 4.5 E 28 37 15 20 1011.7 1008.1 0.0
18/08:30pm 24.7 21.7 16.7 61 5.1 E 28 37 15 20 1011.3 1007.7 0.0
18/08:00pm 25.5 22.0 16.4 57 5.7 E 30 35 16 19 1011.1 1007.4 0.0
18/07:30pm 26.2 22.8 16.7 56 6.0 E 30 39 16 21 1010.8 1007.1 0.0
18/07:00pm 27.0 24.4 16.9 54 6.5 E 26 33 14 18 1010.5 1006.8 0.0
18/06:30pm 28.0 25.2 17.2 52 7.0 E 28 37 15 20 1010.0 1006.4 0.0
18/06:00pm 29.5 26.1 16.7 46 8.2 E 30 46 16 25 1009.7 1006.0 0.0
18/05:30pm 31.0 28.0 15.8 40 9.7 E 26 35 14 19 1009.5 1005.8 0.0
18/05:00pm 31.8 28.5 16.1 38 10.1 E 28 37 15 20 1009.8 1006.1 0.0
18/04:30pm 31.7 29.1 16.0 38 10.1 E 24 32 13 17 1010.1 1006.5 0.0
18/04:00pm 34.4 32.0 16.3 34 11.8 E 24 32 13 17 1010.4 1006.7 0.0
18/03:30pm 33.1 31.9 16.0 35 11.0 SE 17 24 9 13 1010.8 1007.1 0.0
18/03:00pm 33.3 32.2 14.4 32 11.9 WNW 13 20 7 11 1011.2 1007.5 0.0
18/02:30pm 35.5 35.1 14.2 28 13.5 NW 9 17 5 9 1011.6 1008.0 0.0
18/02:00pm 34.8 32.5 14.1 28 13.0 WNW 19 28 10 15 1012.0 1008.3 0.0
18/01:30pm 34.1 33.3 14.1 30 12.6 NW 11 24 6 13 1012.4 1008.7 0.0
18/01:00pm 32.0 31.9 15.9 38 10.3 SE 11 17 6 9 1013.0 1009.4 0.0
18/12:30pm 32.9 31.5 13.5 30 12.0 NW 13 19 7 10 1013.3 1009.7 0.0
18/12:00pm 32.8 33.2 16.2 37 10.7 NE 9 26 5 14 1013.6 1009.9 0.0
18/11:30am 31.0 29.9 14.2 36 10.5 N 13 24 7 13 1014.0 1010.3 0.0
18/11:00am 28.8 27.2 15.0 43 8.6 ENE 17 26 9 14 1014.3 1010.7 0.0
18/10:30am 28.9 28.3 14.7 42 8.8 N 11 19 6 10 1014.7 1011.1 0.0
18/10:00am 28.7 28.5 15.6 45 8.3 NNE 11 19 6 10 1015.0 1011.4 0.0
18/09:30am 28.2 28.1 16.1 47 7.7 N 11 15 6 8 1015.5 1011.9 0.0
18/09:00am 26.4 26.1 15.4 50 6.9 N 11 19 6 10 1015.6 1012.0 0.0
18/08:30am 25.0 23.4 15.0 53 6.2 NNW 17 24 9 13 1015.8 1012.2 0.0
18/08:00am 24.2 23.7 15.9 59 5.2 NNW 13 19 7 10 1015.9 1012.3 0.0
18/07:30am 23.0 22.5 15.8 64 4.5 N 13 19 7 10 1016.0 1012.4 0.0
18/07:00am 21.8 20.8 15.6 68 3.8 N 15 20 8 11 1016.0 1012.4 0.0
18/06:30am 20.6 18.8 15.6 73 3.1 NNE 19 28 10 15 1015.6 1012.0 0.0
18/06:00am 19.6 18.8 16.1 80 2.2 N 15 20 8 11 1015.9 1012.3 0.0
18/05:30am 19.4 19.8 16.4 83 1.9 NNE 9 13 5 7 1015.8 1012.2 0.0
18/05:00am 19.6 19.3 16.4 82 2.0 NNE 13 17 7 9 1015.7 1012.1 0.0
18/04:30am 19.8 17.8 16.4 81 2.1 E 22 28 12 15 1015.1 1011.5 0.0
18/04:00am 19.4 16.1 17.0 86 1.5 E 30 37 16 20 1014.8 1011.2 0.0
18/03:30am 19.4 15.4 16.6 84 1.7 E 33 44 18 24 1014.2 1010.6 0.0
18/03:00am 20.1 16.4 16.1 78 2.5 E 30 37 16 20 1014.6 1011.0 0.0
18/02:30am 20.4 17.5 16.0 76 2.7 E 26 33 14 18 1015.3 1011.6 0.0
18/02:00am 20.8 18.5 15.8 73 3.1 E 22 28 12 15 1016.1 1012.5 0.0
18/01:30am 21.2 20.0 16.0 72 3.2 E 17 20 9 11 1016.9 1013.2 0.0
18/01:00am 21.8 21.3 15.9 69 3.6 E 13 17 7 9 1017.6 1014.0 0.0
18/12:30am 21.8 22.1 16.1 70 3.5 ESE 9 13 5 7 1018.1 1014.5 0.0
18/12:00am 21.9 21.9 16.2 70 3.5 S 11 15 6 8 1019.1 1015.5 0.0
 
Date/Time
EST
Temp
°C
App
Temp
°C
Dew
Point
°C
Rel
Hum
%
Delta-T
°C
Wind Press
QNH
hPa
Press
MSL
hPa
Rain since
9am
mm
Dir  Spd
km/h
Gust
km/h
Spd
kts
Gust
kts
17/11:30pm 20.7 18.7 16.5 77 2.6 ESE 22 37 12 20 1019.0 1015.4 0.0
17/11:00pm 20.7 18.5 15.9 74 3.0 E 22 28 12 15 1017.1 1013.5 0.0
17/10:30pm 21.3 18.3 15.8 71 3.4 E 26 33 14 18 1016.7 1013.1 0.0
17/10:00pm 21.7 18.5 16.2 71 3.4 E 28 35 15 19 1016.7 1013.1 0.0
17/09:30pm 22.4 19.4 16.7 70 3.6 E 28 33 15 18 1016.3 1012.7 0.0
17/09:00pm 23.0 20.8 17.0 69 3.8 ENE 24 33 13 18 1016.7 1013.1 0.0
17/08:30pm 23.6 20.7 17.1 67 4.1 E 28 39 15 21 1016.3 1012.7 0.0
17/08:00pm 24.3 21.5 17.3 65 4.5 E 28 35 15 19 1015.8 1012.2 0.0
17/07:30pm 25.3 22.6 17.5 62 5.0 E 28 35 15 19 1015.6 1012.0 0.0
17/07:00pm 27.5 24.0 14.5 45 8.0 E 26 32 14 17 1014.8 1011.2 0.0
17/06:30pm 27.9 24.9 14.9 45 8.1 E 24 32 13 17 1014.3 1010.7 0.0
17/06:00pm 28.9 25.7 15.4 44 8.5 E 26 33 14 18 1014.2 1010.6 0.0
17/05:30pm 29.9 26.8 15.6 42 9.1 E 26 35 14 19 1014.2 1010.6 0.0
17/05:00pm 31.0 28.1 15.0 38 10.1 E 24 30 13 16 1014.2 1010.6 0.0
17/04:30pm 31.8 29.5 15.7 37 10.3 E 22 30 12 16 1014.5 1010.9 0.0
17/04:00pm 31.9 30.1 14.5 34 10.9 ENE 17 26 9 14 1014.6 1011.0 0.0
17/03:30pm 31.1 30.2 13.8 34 10.7 NE 11 20 6 11 1014.9 1011.3 0.0
17/03:00pm 32.0 30.7 13.7 33 11.3 NE 13 20 7 11 1015.3 1011.6 0.0
17/02:30pm 31.2 30.0 13.9 35 10.7 NE 13 20 7 11 1015.6 1012.0 0.0
17/02:00pm 32.0 31.7 15.5 37 10.5 ESE 11 20 6 11 1016.0 1012.4 0.0
17/01:30pm 31.4 30.7 13.2 33 11.2 NE 9 19 5 10 1016.4 1012.8 0.0
17/01:00pm 30.6 30.0 13.4 35 10.6 SE 9 17 5 9 1017.0 1013.4 0.0
17/12:30pm 30.4 29.6 14.1 37 10.1 W 11 24 6 13 1017.2 1013.6 0.0
17/12:00pm 30.3 30.0 14.4 38 9.9 WNW 9 19 5 10 1017.7 1014.1 0.0
17/11:30am 28.7 28.6 13.8 40 9.1 NNW 7 15 4 8 1018.2 1014.6 0.0
17/11:00am 27.9 28.2 14.9 45 8.1 NW 7 17 4 9 1018.7 1015.1 0.0
17/10:30am 26.7 26.2 14.8 48 7.4 N 11 17 6 9 1019.2 1015.6 0.0
17/10:00am 25.8 26.0 15.8 54 6.2 NE 9 15 5 8 1019.3 1015.7 0.0
17/09:30am 24.5 24.9 15.4 57 5.6 NE 7 19 4 10 1019.6 1016.0 0.0
17/09:00am 23.3 23.2 15.9 63 4.6 ENE 11 19 6 10 1019.7 1016.2 0.0
17/08:30am 21.9 21.3 15.7 68 3.8 NE 13 19 7 10 1019.6 1016.0 0.0
17/08:00am 21.4 20.4 15.7 70 3.5 ENE 15 20 8 11 1019.6 1016.0 0.0
17/07:37am 20.2 19.4 16.0 77 2.6 NNE 15 19 8 10 1019.5 1015.9 0.0
17/07:30am 19.6 18.8 16.1 80 2.2 NE 15 20 8 11 1019.5 1015.9 0.0
17/07:00am 19.4 18.8 16.6 84 1.7 NE 15 20 8 11 1019.4 1015.8 0.0
17/06:30am 19.0 18.8 16.6 86 1.5 NE 13 19 7 10 1019.2 1015.6 0.0
17/06:00am 18.6 18.4 16.8 89 1.1 NE 13 19 7 10 1019.2 1015.6 0.0
17/05:30am 18.4 17.6 17.2 93 0.7 NE 17 24 9 13 1018.7 1015.1 0.0
17/05:00am 18.5 17.7 17.2 92 0.8 ENE 17 20 9 11 1018.4 1014.9 0.0
17/04:30am 18.4 16.8 17.4 94 0.6 ENE 22 28 12 15 1018.0 1014.4 0.0
17/04:00am 18.5 17.2 17.3 93 0.7 ENE 20 28 11 15 1018.0 1014.4 0.0
17/03:30am 18.4 17.2 17.4 94 0.6 E 20 32 11 17 1017.8 1014.2 0.0
17/03:00am 18.6 17.5 17.4 93 0.7 ENE 19 30 10 16 1017.8 1014.2 0.0

Other Formats:

Comma delimited format used in spreadsheet applications
http://www.bom.gov.au/fwo/IDQ60801/IDQ60801.95551.axf

JavaScript Object Notation format (JSON) in row-major order
http://www.bom.gov.au/fwo/IDQ60801/IDQ60801.95551.json